Time;durP1;ratioP1;P1;durP2;ratioP2;P2;SDS_P1;SDS_P2;PMS_P1;PMS_P2;Temp;Humidity;BMP_temperature;BMP_pressure;BME280_temperature;BME280_humidity;BME280_pressure;Samples;Min_cycle;Max_cycle;Signal;HPM_P1;HPM_P2
2024/01/05 00:01:09;;;;;;;9.20;6.03;;;3.10;99.90;;;;;;5099950;28;20024;-41
2024/01/05 00:03:34;;;;;;;11.57;6.30;;;3.10;99.90;;;;;;5101562;28;20020;-41
2024/01/05 00:06:00;;;;;;;14.95;7.60;;;3.10;99.90;;;;;;5099655;28;20024;-40
2024/01/05 00:08:25;;;;;;;11.88;6.47;;;3.10;99.90;;;;;;5102469;28;20380;-42
2024/01/05 00:10:51;;;;;;;12.15;6.60;;;3.10;99.90;;;;;;5101167;27;20023;-41
2024/01/05 00:13:17;;;;;;;9.93;5.78;;;3.10;99.90;;;;;;5101225;28;20495;-41
2024/01/05 00:15:42;;;;;;;11.30;6.20;;;3.10;99.90;;;;;;5102129;28;20042;-42
2024/01/05 00:18:08;;;;;;;14.27;7.18;;;3.10;99.90;;;;;;5098931;28;20031;-41
2024/01/05 00:20:34;;;;;;;13.30;6.35;;;3.00;99.90;;;;;;5103148;27;20030;-41
2024/01/05 00:22:59;;;;;;;14.45;6.20;;;3.00;99.90;;;;;;5100598;28;20023;-41
2024/01/05 00:25:25;;;;;;;11.48;6.15;;;3.00;99.90;;;;;;5102812;28;20102;-41
2024/01/05 00:27:52;;;;;;;10.40;6.20;;;3.00;99.90;;;;;;5101545;28;20018;-41
2024/01/05 00:30:18;;;;;;;12.00;6.00;;;3.00;99.90;;;;;;5100747;28;20020;-43
2024/01/05 00:32:44;;;;;;;10.57;6.00;;;3.00;99.90;;;;;;5102518;28;20392;-42
2024/01/05 00:35:10;;;;;;;11.40;5.72;;;3.00;99.90;;;;;;5100671;28;20030;-42
2024/01/05 00:37:35;;;;;;;13.43;7.15;;;3.10;99.90;;;;;;5103983;28;20096;-49
2024/01/05 00:40:06;;;;;;;14.68;7.32;;;3.10;99.90;;;;;;5098615;28;20020;-50
2024/01/05 00:42:31;;;;;;;12.18;6.93;;;3.10;99.90;;;;;;5094237;28;20316;-53
2024/01/05 00:44:57;;;;;;;11.77;6.28;;;3.00;99.90;;;;;;5099449;28;20031;-53
2024/01/05 00:47:23;;;;;;;12.82;7.22;;;3.10;99.90;;;;;;5102730;28;20039;-54
2024/01/05 00:49:48;;;;;;;12.43;7.05;;;3.10;99.90;;;;;;5102026;28;20031;-53
2024/01/05 00:52:14;;;;;;;13.43;7.18;;;3.10;99.90;;;;;;5101586;28;20430;-51
2024/01/05 00:54:40;;;;;;;14.63;8.48;;;3.10;99.90;;;;;;5103440;28;20397;-53
2024/01/05 00:57:06;;;;;;;11.93;7.47;;;3.10;99.90;;;;;;5100214;28;20366;-53
2024/01/05 00:59:31;;;;;;;15.45;7.55;;;3.10;99.90;;;;;;5103081;28;20022;-50
2024/01/05 01:01:57;;;;;;;14.65;7.97;;;3.10;99.90;;;;;;5100953;28;20028;-49
2024/01/05 01:04:23;;;;;;;15.85;7.53;;;3.10;99.90;;;;;;5103118;28;20081;-41
2024/01/05 01:06:49;;;;;;;13.98;7.10;;;3.10;99.90;;;;;;5102448;28;20020;-41
2024/01/05 01:09:15;;;;;;;15.32;7.70;;;3.10;99.90;;;;;;5101079;28;20435;-42
2024/01/05 01:11:40;;;;;;;16.08;8.00;;;3.10;99.90;;;;;;5103601;28;20032;-45
2024/01/05 01:14:06;;;;;;;16.20;8.90;;;3.10;99.90;;;;;;5100432;28;20047;-43
2024/01/05 01:16:32;;;;;;;16.40;7.28;;;3.10;99.90;;;;;;5103508;28;20024;-41
2024/01/05 01:18:58;;;;;;;17.17;7.75;;;3.10;99.90;;;;;;5101179;28;20028;-43
2024/01/05 01:21:23;;;;;;;13.48;7.30;;;3.10;99.90;;;;;;5102835;28;20169;-40
2024/01/05 01:23:51;;;;;;;18.00;8.18;;;3.10;99.90;;;;;;5102710;28;20424;-44
2024/01/05 01:26:16;;;;;;;16.88;8.02;;;3.10;99.90;;;;;;5101996;28;20243;-41
2024/01/05 01:28:42;;;;;;;15.18;8.07;;;3.10;99.90;;;;;;5103131;28;20396;-41
2024/01/05 01:31:07;;;;;;;15.32;8.20;;;3.10;99.90;;;;;;5100349;28;20534;-41
2024/01/05 01:33:33;;;;;;;16.15;8.48;;;3.10;99.90;;;;;;5103633;28;20027;-41
2024/01/05 01:35:58;;;;;;;13.23;8.00;;;3.10;99.90;;;;;;5101316;28;20027;-42
2024/01/05 01:38:24;;;;;;;17.92;8.05;;;3.10;99.90;;;;;;5102827;28;20031;-41
2024/01/05 01:40:50;;;;;;;13.80;7.97;;;3.10;99.90;;;;;;5103120;28;20034;-42
2024/01/05 01:43:25;;;;;;;13.05;7.65;;;3.10;99.90;;;;;;5102017;28;20013;-41
2024/01/05 01:45:53;;;;;;;18.70;7.90;;;3.10;99.90;;;;;;5096899;28;20481;-41
2024/01/05 01:48:19;;;;;;;15.45;8.35;;;3.10;99.90;;;;;;5101647;28;20027;-42
2024/01/05 01:50:47;;;;;;;14.68;8.07;;;3.10;99.90;;;;;;5103590;28;20080;-41
2024/01/05 01:53:16;;;;;;;15.07;8.25;;;3.10;99.90;;;;;;5083693;28;20075;-42
2024/01/05 01:55:42;;;;;;;15.95;8.52;;;3.10;99.90;;;;;;5104156;28;20081;-42
2024/01/05 01:58:09;;;;;;;16.15;8.25;;;3.10;99.90;;;;;;5100322;28;20031;-42
2024/01/05 02:00:34;;;;;;;15.80;8.10;;;3.10;99.90;;;;;;5085607;28;20031;-41
2024/01/05 02:03:03;;;;;;;28.08;9.65;;;3.10;99.90;;;;;;5101690;28;20061;-43
2024/01/05 02:05:28;;;;;;;14.85;8.55;;;3.10;99.90;;;;;;5103927;28;20111;-42
2024/01/05 02:07:56;;;;;;;16.45;8.52;;;3.10;99.90;;;;;;5102331;28;20670;-40
2024/01/05 02:10:21;;;;;;;19.48;9.35;;;3.10;99.90;;;;;;5102807;28;20096;-41
2024/01/05 02:12:47;;;;;;;32.97;9.95;;;3.10;99.90;;;;;;5103493;28;20107;-41
2024/01/05 02:15:14;;;;;;;16.20;9.20;;;3.00;99.90;;;;;;5100152;28;20027;-41
2024/01/05 02:17:40;;;;;;;15.75;8.30;;;3.00;99.90;;;;;;5103890;28;20031;-41
2024/01/05 02:20:06;;;;;;;17.35;9.13;;;3.00;99.90;;;;;;5099849;28;20028;-41
2024/01/05 02:22:34;;;;;;;17.88;8.95;;;3.00;99.90;;;;;;5103844;28;20026;-41
2024/01/05 02:25:01;;;;;;;18.30;9.30;;;3.00;99.90;;;;;;5101835;28;20425;-41
2024/01/05 02:27:26;;;;;;;16.08;8.93;;;3.00;99.90;;;;;;5103191;28;20031;-43
2024/01/05 02:29:52;;;;;;;16.33;8.95;;;3.00;99.90;;;;;;5101530;28;20019;-41
2024/01/05 02:32:18;;;;;;;17.17;9.48;;;3.00;99.90;;;;;;5102505;28;20020;-41
2024/01/05 02:34:44;;;;;;;18.73;9.32;;;3.10;99.90;;;;;;5103887;28;20300;-41
2024/01/05 02:37:10;;;;;;;22.27;10.35;;;3.00;99.90;;;;;;5101298;28;20089;-42
2024/01/05 02:39:36;;;;;;;18.83;11.00;;;3.00;99.90;;;;;;5103579;28;20142;-42
2024/01/05 02:42:02;;;;;;;22.58;10.13;;;3.00;99.90;;;;;;5105409;28;20103;-42
2024/01/05 02:44:27;;;;;;;18.58;9.82;;;3.00;99.90;;;;;;5108172;28;20035;-41
2024/01/05 02:46:54;;;;;;;25.77;10.32;;;3.00;99.90;;;;;;5106120;28;20028;-41
2024/01/05 02:49:19;;;;;;;22.30;11.35;;;3.00;99.90;;;;;;5106476;28;20031;-41
2024/01/05 02:51:45;;;;;;;24.85;11.27;;;2.90;99.90;;;;;;5108295;28;20111;-42
2024/01/05 02:54:11;;;;;;;20.45;10.20;;;3.00;99.90;;;;;;5106207;28;20024;-41
2024/01/05 02:56:36;;;;;;;19.98;10.90;;;3.00;99.90;;;;;;5108118;28;20115;-42
2024/01/05 02:59:04;;;;;;;20.30;10.07;;;3.00;99.90;;;;;;5106091;28;20038;-41
2024/01/05 03:01:30;;;;;;;16.88;10.38;;;3.00;99.90;;;;;;5095660;28;20408;-41
2024/01/05 03:03:57;;;;;;;22.27;11.45;;;3.00;99.90;;;;;;5107362;28;20019;-42
2024/01/05 03:06:23;;;;;;;20.15;11.25;;;3.00;99.90;;;;;;5107695;28;20023;-41
2024/01/05 03:08:49;;;;;;;22.80;10.90;;;3.00;99.90;;;;;;5108445;28;20032;-41
2024/01/05 03:11:15;;;;;;;21.17;11.18;;;3.00;99.90;;;;;;5106623;28;20285;-41
2024/01/05 03:13:41;;;;;;;20.13;11.10;;;2.90;99.90;;;;;;5108600;28;20508;-41
2024/01/05 03:16:06;;;;;;;17.73;9.70;;;2.90;99.90;;;;;;5106182;28;20020;-41
2024/01/05 03:18:32;;;;;;;22.00;10.52;;;2.90;99.90;;;;;;5108158;28;20073;-41
2024/01/05 03:20:58;;;;;;;22.92;10.85;;;2.90;99.90;;;;;;5107576;28;20051;-42
2024/01/05 03:23:24;;;;;;;21.88;12.38;;;2.90;99.90;;;;;;5106627;28;20114;-42
2024/01/05 03:25:50;;;;;;;22.88;11.65;;;2.90;99.90;;;;;;5108561;28;20038;-40
2024/01/05 03:28:17;;;;;;;20.80;10.82;;;2.90;99.90;;;;;;5106303;28;20032;-42
2024/01/05 03:30:42;;;;;;;20.85;11.02;;;2.90;99.90;;;;;;5108265;28;20493;-40
2024/01/05 03:33:09;;;;;;;19.45;10.40;;;2.90;99.90;;;;;;5106263;28;20039;-40
2024/01/05 03:35:36;;;;;;;20.55;11.55;;;3.00;99.90;;;;;;5108448;27;20020;-41
2024/01/05 03:38:02;;;;;;;23.67;12.23;;;2.80;99.90;;;;;;5106120;28;20420;-43
2024/01/05 03:40:27;;;;;;;21.70;11.18;;;2.90;99.90;;;;;;5107701;28;20019;-41
2024/01/05 03:42:53;;;;;;;23.77;11.32;;;2.80;99.90;;;;;;5106639;28;20024;-43
2024/01/05 03:45:18;;;;;;;23.38;12.45;;;2.90;99.90;;;;;;5106557;28;20024;-42
2024/01/05 03:47:44;;;;;;;19.10;11.00;;;2.90;99.90;;;;;;5106659;28;20039;-40
2024/01/05 03:50:09;;;;;;;25.40;11.20;;;2.90;99.90;;;;;;5106258;28;20028;-41
2024/01/05 03:52:36;;;;;;;21.25;10.40;;;2.90;99.90;;;;;;5106965;28;20028;-42
2024/01/05 03:55:02;;;;;;;21.25;11.40;;;2.90;99.90;;;;;;5106634;28;20089;-42
2024/01/05 03:57:28;;;;;;;22.70;11.52;;;2.90;99.90;;;;;;5107937;28;20031;-41
2024/01/05 03:59:53;;;;;;;23.60;12.40;;;2.90;99.90;;;;;;5107941;28;20107;-42
2024/01/05 04:02:19;;;;;;;20.38;11.40;;;2.90;99.90;;;;;;5105443;28;20048;-43
2024/01/05 04:04:45;;;;;;;21.50;11.38;;;2.90;99.90;;;;;;5101148;28;20672;-42
2024/01/05 04:07:10;;;;;;;19.70;10.35;;;2.90;99.90;;;;;;5108388;27;20027;-44
2024/01/05 04:09:36;;;;;;;22.40;10.68;;;2.90;99.90;;;;;;5107783;28;20480;-41
2024/01/05 04:12:02;;;;;;;21.88;10.88;;;2.90;99.90;;;;;;5101581;28;20028;-42
2024/01/05 04:14:28;;;;;;;20.38;10.98;;;2.90;99.90;;;;;;5096451;28;20494;-41
2024/01/05 04:16:54;;;;;;;19.58;10.02;;;2.90;99.90;;;;;;5094176;28;20059;-45
2024/01/05 04:19:19;;;;;;;23.73;10.85;;;2.90;99.90;;;;;;5095760;28;20521;-43
2024/01/05 04:21:45;;;;;;;20.80;11.48;;;2.90;99.90;;;;;;5103460;28;20055;-42
2024/01/05 04:24:11;;;;;;;23.02;11.40;;;2.90;99.90;;;;;;5106820;28;20016;-40
2024/01/05 04:26:37;;;;;;;20.73;10.65;;;2.90;99.90;;;;;;5107964;28;20048;-42
2024/01/05 04:29:02;;;;;;;22.65;11.00;;;2.80;99.90;;;;;;5106839;28;20480;-41
2024/01/05 04:31:28;;;;;;;22.13;10.48;;;2.80;99.90;;;;;;5108042;28;20031;-42
2024/01/05 04:33:54;;;;;;;19.27;10.40;;;2.90;99.90;;;;;;5106139;28;20034;-44
2024/01/05 04:36:20;;;;;;;20.88;10.50;;;2.90;99.90;;;;;;5105719;28;20077;-43
2024/01/05 04:38:46;;;;;;;17.42;9.48;;;2.90;99.90;;;;;;5106489;28;20032;-42
2024/01/05 04:41:13;;;;;;;19.52;10.60;;;2.90;99.90;;;;;;5105948;28;20031;-42
2024/01/05 04:43:39;;;;;;;19.77;10.43;;;2.90;99.90;;;;;;5108520;28;20098;-41
2024/01/05 04:46:06;;;;;;;19.83;10.75;;;2.90;99.90;;;;;;5107139;28;20430;-41
2024/01/05 04:48:32;;;;;;;23.50;11.35;;;2.90;99.90;;;;;;5106669;28;20529;-43
2024/01/05 04:50:58;;;;;;;18.00;9.45;;;2.90;99.90;;;;;;5094967;28;20032;-41
2024/01/05 04:53:24;;;;;;;20.20;11.50;;;2.90;99.90;;;;;;5093490;28;20031;-42
2024/01/05 04:55:50;;;;;;;19.27;10.25;;;2.90;99.90;;;;;;5090454;28;20051;-42
2024/01/05 04:58:15;;;;;;;20.52;11.15;;;2.90;99.90;;;;;;5092533;28;20047;-42
2024/01/05 05:00:41;;;;;;;21.60;10.32;;;2.90;99.90;;;;;;5091757;28;20024;-43
2024/01/05 05:03:07;;;;;;;18.20;10.20;;;2.90;99.90;;;;;;5104557;28;20036;-42
2024/01/05 05:05:32;;;;;;;20.65;10.23;;;2.90;99.90;;;;;;5108290;28;20020;-41
2024/01/05 05:07:58;;;;;;;16.63;9.68;;;2.90;99.90;;;;;;5106716;28;20185;-41
2024/01/05 05:10:23;;;;;;;21.10;10.20;;;2.80;99.90;;;;;;5106501;28;20097;-42
2024/01/05 05:12:50;;;;;;;16.63;10.38;;;2.90;99.90;;;;;;5108259;28;20019;-43
2024/01/05 05:15:16;;;;;;;19.58;10.43;;;2.90;99.90;;;;;;5107554;28;20027;-45
2024/01/05 05:17:41;;;;;;;18.92;10.13;;;2.80;99.90;;;;;;5108178;28;20075;-42
2024/01/05 05:20:07;;;;;;;19.48;10.48;;;2.80;99.90;;;;;;5107418;28;20153;-43
2024/01/05 05:22:33;;;;;;;18.52;10.73;;;2.80;99.90;;;;;;5108300;28;20214;-43
2024/01/05 05:24:59;;;;;;;20.38;11.15;;;2.80;99.90;;;;;;5108054;28;20545;-43
2024/01/05 05:27:24;;;;;;;19.98;11.45;;;2.80;99.90;;;;;;5106655;28;20169;-42
2024/01/05 05:29:50;;;;;;;19.95;10.98;;;2.80;99.90;;;;;;5107719;28;20019;-42
2024/01/05 05:32:16;;;;;;;18.95;10.32;;;2.80;99.90;;;;;;5107526;28;20420;-42
2024/01/05 05:34:44;;;;;;;22.52;10.60;;;2.80;99.90;;;;;;5108082;28;20307;-44
2024/01/05 05:37:09;;;;;;;20.20;11.02;;;2.90;99.90;;;;;;5107653;28;20023;-41
2024/01/05 05:39:36;;;;;;;19.65;10.27;;;2.90;99.90;;;;;;5108464;28;20578;-45
2024/01/05 05:42:03;;;;;;;19.55;10.60;;;2.90;99.90;;;;;;5107002;28;20044;-43
2024/01/05 05:44:29;;;;;;;19.65;10.57;;;2.80;99.90;;;;;;5108369;28;20569;-43
2024/01/05 05:46:56;;;;;;;19.83;10.70;;;2.90;99.90;;;;;;5108201;28;20015;-42
2024/01/05 05:49:21;;;;;;;19.70;11.30;;;2.90;99.90;;;;;;5107453;28;20020;-43
2024/01/05 05:51:47;;;;;;;18.95;11.02;;;2.90;99.90;;;;;;5108091;28;20016;-41
2024/01/05 05:54:13;;;;;;;22.00;11.18;;;2.90;99.90;;;;;;5107685;28;20020;-45
2024/01/05 05:56:39;;;;;;;20.60;10.40;;;2.90;99.90;;;;;;5108773;28;20012;-42
2024/01/05 05:59:05;;;;;;;21.77;11.63;;;2.90;99.90;;;;;;5107668;28;20421;-46
2024/01/05 06:01:31;;;;;;;22.52;10.57;;;2.90;99.90;;;;;;5107194;28;20023;-42
2024/01/05 06:03:56;;;;;;;19.92;11.68;;;2.90;99.90;;;;;;5108592;28;20016;-43
2024/01/05 06:06:23;;;;;;;20.40;11.30;;;2.90;99.90;;;;;;5107740;28;20561;-43
2024/01/05 06:08:51;;;;;;;19.02;11.32;;;2.90;99.90;;;;;;5108103;28;20380;-41
2024/01/05 06:11:17;;;;;;;17.67;10.18;;;2.90;99.90;;;;;;5106925;28;20445;-43
2024/01/05 06:13:47;;;;;;;16.45;9.52;;;2.90;99.90;;;;;;5108634;28;20434;-43
2024/01/05 06:16:14;;;;;;;21.10;10.70;;;2.90;99.90;;;;;;5105991;28;20019;-42
2024/01/05 06:18:40;;;;;;;19.02;10.63;;;2.90;99.90;;;;;;5107955;28;20275;-43
2024/01/05 06:21:06;;;;;;;17.70;9.38;;;2.90;99.90;;;;;;5108099;28;20573;-42
2024/01/05 06:23:32;;;;;;;17.02;10.35;;;3.00;99.90;;;;;;5108302;28;20232;-44
2024/01/05 06:25:57;;;;;;;18.77;9.30;;;3.00;99.90;;;;;;5090455;28;20037;-42
2024/01/05 06:28:23;;;;;;;15.93;9.10;;;2.90;99.90;;;;;;5091098;28;20028;-45
2024/01/05 06:30:49;;;;;;;17.27;8.98;;;2.90;99.90;;;;;;5089299;28;20524;-42
2024/01/05 06:33:15;;;;;;;16.00;9.50;;;2.90;99.90;;;;;;5090557;28;20035;-43
2024/01/05 06:35:40;;;;;;;16.63;9.43;;;2.90;99.90;;;;;;5087153;28;20138;-41
2024/01/05 06:38:06;;;;;;;16.00;9.35;;;3.00;99.90;;;;;;5087809;28;20032;-42
2024/01/05 06:40:32;;;;;;;17.40;8.95;;;3.00;99.90;;;;;;5088531;28;20031;-43
2024/01/05 06:42:57;;;;;;;13.95;8.63;;;3.00;99.90;;;;;;5088623;28;20016;-43
2024/01/05 06:45:24;;;;;;;14.63;8.35;;;3.00;99.90;;;;;;5088652;28;20024;-43
2024/01/05 06:47:50;;;;;;;16.23;9.00;;;3.00;99.90;;;;;;5087089;28;20024;-41
2024/01/05 06:50:15;;;;;;;17.00;9.43;;;3.00;99.90;;;;;;5088551;28;20114;-43
2024/01/05 06:52:41;;;;;;;18.27;9.07;;;3.00;99.90;;;;;;5088725;28;20043;-44
2024/01/05 06:55:07;;;;;;;14.07;8.43;;;3.00;99.90;;;;;;5088596;28;20036;-42
2024/01/05 06:57:35;;;;;;;17.23;7.72;;;3.00;99.90;;;;;;5086888;28;20595;-43
2024/01/05 07:00:04;;;;;;;14.32;8.73;;;3.00;99.90;;;;;;5088094;28;20031;-43
2024/01/05 07:02:29;;;;;;;15.57;8.30;;;3.00;99.90;;;;;;5088231;28;20019;-42
2024/01/05 07:04:55;;;;;;;15.70;9.05;;;3.00;99.90;;;;;;5088517;28;20031;-42
2024/01/05 07:07:21;;;;;;;14.52;8.40;;;3.00;99.90;;;;;;5088721;28;20016;-43
2024/01/05 07:09:46;;;;;;;15.63;8.55;;;3.00;99.90;;;;;;5088286;28;20393;-43
2024/01/05 07:12:12;;;;;;;14.70;8.40;;;3.00;99.90;;;;;;5087544;28;20251;-43
2024/01/05 07:14:37;;;;;;;15.98;8.45;;;3.00;99.90;;;;;;5088633;28;20020;-43
2024/01/05 07:17:03;;;;;;;15.88;8.73;;;3.00;99.90;;;;;;5088486;28;20032;-41
2024/01/05 07:19:29;;;;;;;16.02;9.10;;;3.00;99.90;;;;;;5088949;28;20039;-42
2024/01/05 07:21:54;;;;;;;16.70;9.43;;;3.00;99.90;;;;;;5088825;28;20425;-41
2024/01/05 07:24:20;;;;;;;14.65;8.32;;;3.00;99.90;;;;;;5088173;28;20024;-43
2024/01/05 07:26:46;;;;;;;18.20;9.60;;;3.00;99.90;;;;;;5090218;28;20028;-42
2024/01/05 07:29:12;;;;;;;16.70;8.90;;;3.10;99.90;;;;;;5092799;28;20016;-40
2024/01/05 07:31:37;;;;;;;18.00;8.52;;;3.10;99.90;;;;;;5092234;28;20046;-41
2024/01/05 07:34:03;;;;;;;13.30;7.95;;;3.00;99.90;;;;;;5092310;28;20122;-40
2024/01/05 07:36:29;;;;;;;13.85;8.73;;;3.00;99.90;;;;;;5092616;28;20095;-42
2024/01/05 07:38:58;;;;;;;14.88;8.45;;;3.00;99.90;;;;;;5094082;28;20089;-41
2024/01/05 07:41:25;;;;;;;14.98;8.68;;;3.00;99.90;;;;;;5091917;28;20041;-41
2024/01/05 07:43:51;;;;;;;13.43;7.82;;;3.00;99.90;;;;;;5092128;28;20026;-42
2024/01/05 07:46:17;;;;;;;19.65;9.75;;;3.00;99.90;;;;;;5092112;28;20020;-45
2024/01/05 07:48:43;;;;;;;13.43;8.07;;;3.00;99.90;;;;;;5091471;28;20381;-41
2024/01/05 07:51:10;;;;;;;14.13;8.52;;;3.00;99.90;;;;;;5092650;28;20032;-41
2024/01/05 07:53:36;;;;;;;14.65;8.13;;;3.00;99.90;;;;;;5091073;28;20107;-41
2024/01/05 07:56:05;;;;;;;14.90;8.65;;;3.00;99.90;;;;;;5091616;28;20142;-41
2024/01/05 07:58:31;;;;;;;14.18;8.68;;;3.00;99.90;;;;;;5089650;28;20057;-41
2024/01/05 08:00:57;;;;;;;13.27;8.07;;;2.90;99.90;;;;;;5090914;28;20067;-43
2024/01/05 08:03:23;;;;;;;14.95;8.80;;;3.00;99.90;;;;;;5091923;28;20025;-42
2024/01/05 08:05:48;;;;;;;13.35;7.93;;;2.90;99.90;;;;;;5090755;28;20018;-42
2024/01/05 08:08:14;;;;;;;14.02;8.00;;;3.00;99.90;;;;;;5091068;28;20024;-41
2024/01/05 08:10:40;;;;;;;12.50;6.95;;;2.90;99.90;;;;;;5091229;28;20101;-41
2024/01/05 08:13:06;;;;;;;14.20;7.38;;;2.90;99.90;;;;;;5092423;28;20016;-42
2024/01/05 08:15:32;;;;;;;11.23;7.47;;;2.90;99.90;;;;;;5093131;28;20216;-40
2024/01/05 08:17:58;;;;;;;13.13;7.25;;;2.90;99.90;;;;;;5092198;28;20487;-41
2024/01/05 08:20:24;;;;;;;13.43;7.35;;;2.90;99.90;;;;;;5093421;28;20548;-41
2024/01/05 08:22:50;;;;;;;10.85;6.35;;;2.90;99.90;;;;;;5092925;28;20099;-40
2024/01/05 08:25:15;;;;;;;12.13;6.90;;;2.90;99.90;;;;;;5092867;28;20052;-40
2024/01/05 08:27:42;;;;;;;10.65;6.93;;;2.90;99.90;;;;;;5092733;28;20099;-40
2024/01/05 08:30:13;;;;;;;12.13;7.32;;;2.90;99.90;;;;;;5093059;28;20020;-40
2024/01/05 08:32:41;;;;;;;9.98;6.63;;;2.90;99.90;;;;;;5092817;28;20019;-40
2024/01/05 08:35:07;;;;;;;10.52;6.28;;;2.90;99.90;;;;;;5092927;28;20304;-40
2024/01/05 08:37:34;;;;;;;12.23;6.82;;;2.90;99.90;;;;;;5093048;28;20100;-40
2024/01/05 08:40:00;;;;;;;13.50;7.65;;;2.90;99.90;;;;;;5091769;28;20020;-41
2024/01/05 08:42:26;;;;;;;12.65;7.60;;;2.90;99.90;;;;;;5093894;28;20024;-41
2024/01/05 08:44:51;;;;;;;12.90;6.60;;;2.90;99.90;;;;;;5092680;28;20012;-40
2024/01/05 08:47:17;;;;;;;12.40;6.75;;;2.90;99.90;;;;;;5093795;28;20017;-40
2024/01/05 08:49:43;;;;;;;14.40;6.53;;;2.90;99.90;;;;;;5092266;28;20016;-41
2024/01/05 08:52:09;;;;;;;10.77;6.78;;;2.90;99.90;;;;;;5093005;28;20070;-41
2024/01/05 08:54:35;;;;;;;14.07;7.57;;;2.90;99.90;;;;;;5091740;28;20120;-41
2024/01/05 08:57:00;;;;;;;12.15;6.72;;;2.90;99.90;;;;;;5092148;28;20131;-40
2024/01/05 08:59:26;;;;;;;14.07;7.88;;;2.90;99.90;;;;;;5093598;28;20020;-40
2024/01/05 09:01:52;;;;;;;11.70;7.03;;;3.00;99.90;;;;;;5092643;28;20016;-41
2024/01/05 09:04:17;;;;;;;13.32;7.70;;;3.00;99.90;;;;;;5094059;28;20020;-40
2024/01/05 09:06:44;;;;;;;12.82;7.75;;;3.00;99.90;;;;;;5092862;28;20012;-40
2024/01/05 09:09:12;;;;;;;13.23;7.45;;;3.00;99.90;;;;;;5091947;28;20024;-40
2024/01/05 09:11:39;;;;;;;13.20;7.70;;;3.00;99.90;;;;;;5093104;28;20313;-41
2024/01/05 09:14:05;;;;;;;13.02;8.00;;;3.00;99.90;;;;;;5092683;28;20469;-40
2024/01/05 09:16:30;;;;;;;13.23;8.07;;;3.00;99.90;;;;;;5092456;28;20019;-40
2024/01/05 09:18:56;;;;;;;14.52;8.30;;;3.10;99.90;;;;;;5092020;28;20023;-41
2024/01/05 09:21:22;;;;;;;15.52;8.85;;;3.10;99.90;;;;;;5094549;28;20111;-42
2024/01/05 09:23:47;;;;;;;13.40;8.25;;;3.10;99.90;;;;;;5092741;28;20035;-42
2024/01/05 09:26:16;;;;;;;12.57;8.00;;;3.10;99.90;;;;;;5093639;28;20111;-41
2024/01/05 09:28:42;;;;;;;16.67;9.65;;;3.10;99.90;;;;;;5091506;28;20027;-40
2024/01/05 09:31:09;;;;;;;14.27;8.63;;;3.10;99.90;;;;;;5092226;28;20114;-41
2024/01/05 09:33:35;;;;;;;16.45;9.15;;;3.20;99.90;;;;;;5094221;28;20038;-41
2024/01/05 09:36:02;;;;;;;13.88;8.80;;;3.10;99.90;;;;;;5093176;28;20429;-41
2024/01/05 09:38:28;;;;;;;14.68;8.75;;;3.20;99.90;;;;;;5095033;28;20063;-42
2024/01/05 09:40:54;;;;;;;14.50;8.23;;;3.20;99.90;;;;;;5093220;28;20055;-41
2024/01/05 09:43:24;;;;;;;14.88;8.15;;;3.20;99.90;;;;;;5093052;28;20077;-40
2024/01/05 09:45:51;;;;;;;13.82;8.00;;;3.20;99.90;;;;;;5092903;28;20103;-40
2024/01/05 09:48:21;;;;;;;16.35;9.45;;;3.20;99.90;;;;;;5093475;28;20392;-40
2024/01/05 09:50:55;;;;;;;13.40;8.18;;;3.20;99.90;;;;;;5090197;28;20076;-41
2024/01/05 09:53:20;;;;;;;15.77;8.25;;;3.30;99.90;;;;;;5091779;28;20028;-41
2024/01/05 09:55:50;;;;;;;12.25;7.75;;;3.30;99.90;;;;;;5091725;28;20082;-41
2024/01/05 09:58:17;;;;;;;16.50;8.68;;;3.40;99.90;;;;;;5092969;28;20436;-41
2024/01/05 10:00:50;;;;;;;13.70;7.47;;;3.40;99.90;;;;;;5095120;28;20019;-41
2024/01/05 10:03:24;;;;;;;14.23;8.55;;;3.40;99.90;;;;;;5096022;28;20024;-41
2024/01/05 10:05:50;;;;;;;15.20;9.27;;;3.40;99.90;;;;;;5086624;28;20020;-41
2024/01/05 10:08:16;;;;;;;16.58;8.60;;;3.40;99.90;;;;;;5093191;28;20496;-42
2024/01/05 10:10:49;;;;;;;15.98;8.98;;;3.40;99.90;;;;;;5088555;28;20047;-41
2024/01/05 10:13:15;;;;;;;16.63;10.05;;;3.40;99.90;;;;;;5087197;28;20416;-40
2024/01/05 10:15:55;;;;;;;17.35;8.77;;;3.40;99.90;;;;;;5090106;28;20070;-40
2024/01/05 10:18:22;;;;;;;16.97;9.07;;;3.40;99.90;;;;;;5093960;28;20059;-41
2024/01/05 10:20:48;;;;;;;14.73;8.68;;;3.40;99.90;;;;;;5087103;28;20031;-41
2024/01/05 10:23:16;;;;;;;13.35;9.02;;;3.40;99.90;;;;;;5093884;28;20412;-40
2024/01/05 10:25:41;;;;;;;13.75;8.48;;;3.40;99.90;;;;;;5090739;28;20028;-41
2024/01/05 10:28:37;;;;;;;15.73;9.40;;;3.40;99.90;;;;;;5091345;28;20050;-40
2024/01/05 10:31:13;;;;;;;18.88;10.25;;;3.40;99.90;;;;;;5088961;28;20142;-40
2024/01/05 10:33:54;;;;;;;15.27;9.73;;;3.40;99.90;;;;;;5090849;28;20103;-40
2024/01/05 10:36:20;;;;;;;17.63;10.15;;;3.40;99.90;;;;;;5090132;28;21039;-40
2024/01/05 10:38:47;;;;;;;18.10;9.85;;;3.40;99.90;;;;;;5090870;28;20189;-40
2024/01/05 10:41:15;;;;;;;15.77;9.52;;;3.40;99.90;;;;;;5089939;28;20057;-40
2024/01/05 10:43:42;;;;;;;15.75;8.77;;;3.40;99.90;;;;;;5092035;28;20016;-40
2024/01/05 10:46:17;;;;;;;17.42;9.38;;;3.40;99.90;;;;;;5091102;28;20047;-40
2024/01/05 10:48:43;;;;;;;16.20;9.15;;;3.50;99.90;;;;;;5090822;28;20012;-40
2024/01/05 10:51:15;;;;;;;15.60;9.18;;;3.50;99.90;;;;;;5091226;28;20431;-40
2024/01/05 10:53:43;;;;;;;19.05;10.27;;;3.40;99.90;;;;;;5093108;28;20091;-40
2024/01/05 10:56:10;;;;;;;15.30;8.27;;;3.50;99.90;;;;;;5094345;28;20035;-41
2024/01/05 10:58:36;;;;;;;14.20;8.93;;;3.40;99.90;;;;;;5095476;28;20525;-40
2024/01/05 11:01:02;;;;;;;14.68;8.73;;;3.40;99.90;;;;;;5094206;28;20032;-41
2024/01/05 11:03:49;;;;;;;14.57;9.27;;;3.40;99.90;;;;;;5100673;28;20027;-40
2024/01/05 11:06:15;;;;;;;14.95;8.55;;;3.40;99.90;;;;;;5098908;28;20058;-41
2024/01/05 11:08:52;;;;;;;18.15;9.05;;;3.40;99.90;;;;;;5099164;28;20023;-41
2024/01/05 11:11:21;;;;;;;16.65;9.65;;;3.40;99.90;;;;;;5100043;28;20028;-41
2024/01/05 11:14:12;;;;;;;14.60;9.00;;;3.40;99.90;;;;;;5098449;28;20082;-40
2024/01/05 11:16:49;;;;;;;17.10;9.15;;;3.40;99.90;;;;;;5096348;28;20024;-40
2024/01/05 11:19:42;;;;;;;15.52;9.32;;;3.40;99.90;;;;;;5098415;28;20106;-40
2024/01/05 11:22:11;;;;;;;18.13;9.55;;;3.40;99.90;;;;;;5098211;28;20020;-41
2024/01/05 11:24:38;;;;;;;16.58;9.68;;;3.40;99.90;;;;;;5099763;28;20011;-41
2024/01/05 11:27:26;;;;;;;18.88;10.02;;;3.40;99.90;;;;;;5097717;28;20020;-41
2024/01/05 11:29:53;;;;;;;17.35;11.02;;;3.50;99.90;;;;;;5097289;28;20023;-40
2024/01/05 11:32:46;;;;;;;17.33;10.77;;;3.40;99.90;;;;;;5099883;28;20024;-41
2024/01/05 11:35:20;;;;;;;19.48;10.75;;;3.40;99.90;;;;;;5098624;28;20030;-41
2024/01/05 11:37:49;;;;;;;16.70;10.30;;;3.40;99.90;;;;;;5098789;28;20112;-41
2024/01/05 11:40:35;;;;;;;23.08;12.50;;;3.50;99.90;;;;;;5098996;28;20039;-40
2024/01/05 11:43:33;;;;;;;19.42;11.65;;;3.50;99.90;;;;;;5093858;28;20020;-41
2024/01/05 11:45:59;;;;;;;22.70;11.60;;;3.50;99.90;;;;;;5087406;28;20024;-41
2024/01/05 11:48:33;;;;;;;19.65;11.95;;;3.50;99.90;;;;;;5096049;28;20031;-41
2024/01/05 11:51:02;;;;;;;26.52;12.52;;;3.60;99.90;;;;;;5093724;28;20028;-41
2024/01/05 11:53:28;;;;;;;24.98;13.45;;;3.60;99.90;;;;;;5094584;28;20075;-41
2024/01/05 11:55:59;;;;;;;19.75;12.65;;;3.60;99.90;;;;;;5097484;28;20393;-41
2024/01/05 11:58:31;;;;;;;20.40;13.35;;;3.60;99.90;;;;;;5094666;28;20032;-40
2024/01/05 12:00:59;;;;;;;21.92;11.02;;;3.50;99.90;;;;;;5093787;28;20081;-44
2024/01/05 12:03:25;;;;;;;19.90;12.13;;;3.50;99.90;;;;;;5098202;28;20024;-41
2024/01/05 12:06:03;;;;;;;21.63;13.05;;;3.60;99.90;;;;;;5094769;28;20421;-41
2024/01/05 12:08:29;;;;;;;22.30;12.32;;;3.60;99.90;;;;;;5097854;28;20023;-41
2024/01/05 12:11:02;;;;;;;20.13;13.25;;;3.60;99.90;;;;;;5096555;28;20316;-42
2024/01/05 12:13:29;;;;;;;26.20;12.52;;;3.60;99.90;;;;;;5100171;28;20031;-41
2024/01/05 12:15:56;;;;;;;18.30;11.00;;;3.70;99.90;;;;;;5098112;28;20250;-41
2024/01/05 12:18:29;;;;;;;21.25;11.98;;;3.70;99.90;;;;;;5099798;28;20016;-40
2024/01/05 12:21:01;;;;;;;19.00;11.63;;;3.70;99.90;;;;;;5094747;28;20136;-42
2024/01/05 12:23:28;;;;;;;20.35;11.82;;;3.70;99.90;;;;;;5096952;28;20023;-41
2024/01/05 12:26:01;;;;;;;17.95;11.18;;;3.70;99.90;;;;;;5095873;28;20024;-41
2024/01/05 12:28:29;;;;;;;23.20;11.25;;;3.70;99.90;;;;;;5098832;28;20015;-41
2024/01/05 12:30:56;;;;;;;25.95;11.85;;;3.70;99.90;;;;;;5096072;28;20020;-42
2024/01/05 12:33:23;;;;;;;21.00;11.65;;;3.70;99.90;;;;;;5095500;28;20069;-43
2024/01/05 12:35:49;;;;;;;18.83;11.40;;;3.70;99.90;;;;;;5093828;28;20016;-40
2024/01/05 12:38:42;;;;;;;18.48;11.35;;;3.80;99.90;;;;;;5095211;28;20118;-40
2024/01/05 12:41:15;;;;;;;17.13;10.75;;;3.80;99.90;;;;;;5089940;28;20028;-40
2024/01/05 12:43:49;;;;;;;16.55;10.43;;;3.90;99.90;;;;;;5094914;28;20484;-40